Terminal Aerodrome Forecast
Issued by NWS

Home | Current Version | Previous Version | Text Only | Print | Product List | Glossary On
Versions: 1 2 3 4 5 6 7 8 9 10 11 12 13 14 15 16 17
000
FTUS44 KBMX 241700
TAFTCL
TAF
KTCL 241736Z 2418/2518 18007KT P6SM SCT040 SCT250
     FM250500 20009KT P6SM SHRA BKN020 OVC050
     FM251000 28008KT P6SM OVC020=

USA.gov is the U.S. government's official web portal to all federal, state and local government web resources and services.